createdAt,value
2023-04-03T00:00:08.000Z,5.817693059628562
2023-04-03T00:01:10.000Z,5.856598240469227
2023-04-03T00:02:13.000Z,5.876050830889559
2023-04-03T00:03:15.000Z,5.885777126099725
2023-04-03T00:04:18.000Z,5.885777126099725
2023-04-03T00:05:21.000Z,5.876050830889559
2023-04-03T00:06:23.000Z,5.895503421309892
2023-04-03T00:07:26.000Z,5.856598240469227
2023-04-03T00:08:28.000Z,5.817693059628562
2023-04-03T00:09:31.000Z,5.8468719452590605
2023-04-03T00:10:34.000Z,5.837145650048894
2023-04-03T00:11:36.000Z,5.778787878787897
2023-04-03T00:12:39.000Z,5.827419354838728
2023-04-03T00:13:42.000Z,5.827419354838728
2023-04-03T00:14:44.000Z,5.866324535679393
2023-04-03T00:15:47.000Z,5.876050830889559
2023-04-03T00:16:54.000Z,5.876050830889559
2023-04-03T00:17:57.000Z,5.798240469208229
2023-04-03T00:19:04.000Z,5.895503421309892
2023-04-03T00:20:07.000Z,5.914956011730224
2023-04-03T00:21:10.000Z,5.876050830889559
2023-04-03T00:22:12.000Z,5.876050830889559
2023-04-03T00:23:15.000Z,5.866324535679393
2023-04-03T00:24:18.000Z,5.866324535679393
2023-04-03T00:25:20.000Z,5.866324535679393
2023-04-03T00:26:23.000Z,5.876050830889559
2023-04-03T00:27:25.000Z,5.856598240469227
2023-04-03T00:28:28.000Z,5.798240469208229
2023-04-03T00:29:31.000Z,5.7204301075269
2023-04-03T00:30:33.000Z,5.837145650048894
2023-04-03T00:31:36.000Z,5.837145650048894
2023-04-03T00:32:39.000Z,5.885777126099725
2023-04-03T00:33:41.000Z,5.92468230694039
2023-04-03T00:34:44.000Z,5.895503421309892
2023-04-03T00:35:46.000Z,5.885777126099725
2023-04-03T00:36:49.000Z,5.905229716520058
2023-04-03T00:37:52.000Z,5.905229716520058
2023-04-03T00:38:54.000Z,5.885777126099725
2023-04-03T00:39:57.000Z,5.8468719452590605
2023-04-03T00:40:59.000Z,5.749608993157398
2023-04-03T00:42:02.000Z,5.895503421309892
2023-04-03T00:43:05.000Z,5.905229716520058
2023-04-03T00:44:07.000Z,5.895503421309892
2023-04-03T00:45:10.000Z,5.885777126099725
2023-04-03T00:46:13.000Z,5.807966764418396
2023-04-03T00:47:15.000Z,5.856598240469227
2023-04-03T00:48:18.000Z,5.827419354838728
2023-04-03T00:49:21.000Z,5.856598240469227
2023-04-03T00:50:23.000Z,5.817693059628562
2023-04-03T00:51:26.000Z,5.788514173998063
2023-04-03T00:52:29.000Z,5.691251221896401
2023-04-03T00:53:31.000Z,5.778787878787897
2023-04-03T00:54:34.000Z,5.788514173998063
2023-04-03T00:55:37.000Z,5.798240469208229
2023-04-03T00:56:39.000Z,5.798240469208229
2023-04-03T00:57:42.000Z,5.788514173998063
2023-04-03T00:58:44.000Z,5.837145650048894
2023-04-03T00:59:47.000Z,5.827419354838728
2023-04-03T01:00:50.000Z,5.866324535679393
2023-04-03T01:01:52.000Z,5.856598240469227
2023-04-03T01:02:55.000Z,5.866324535679393
2023-04-03T01:03:57.000Z,5.769061583577731
2023-04-03T01:05:00.000Z,5.866324535679393
2023-04-03T01:06:03.000Z,5.866324535679393
2023-04-03T01:07:05.000Z,5.837145650048894
2023-04-03T01:08:08.000Z,5.876050830889559
2023-04-03T01:09:11.000Z,5.856598240469227
2023-04-03T01:10:14.000Z,5.837145650048894
2023-04-03T01:11:16.000Z,5.856598240469227
2023-04-03T01:12:19.000Z,5.837145650048894
2023-04-03T01:13:22.000Z,5.8468719452590605
2023-04-03T01:14:25.000Z,5.837145650048894
2023-04-03T01:15:27.000Z,5.856598240469227
2023-04-03T01:16:30.000Z,5.866324535679393
2023-04-03T01:17:33.000Z,5.866324535679393
2023-04-03T01:18:36.000Z,5.866324535679393
2023-04-03T01:19:38.000Z,5.827419354838728
2023-04-03T01:20:41.000Z,5.827419354838728
2023-04-03T01:21:44.000Z,5.876050830889559
2023-04-03T01:22:46.000Z,5.885777126099725
2023-04-03T01:23:49.000Z,5.895503421309892
2023-04-03T01:24:52.000Z,5.905229716520058
2023-04-03T01:25:54.000Z,5.8468719452590605
2023-04-03T01:26:57.000Z,5.92468230694039
2023-04-03T01:27:59.000Z,5.895503421309892
2023-04-03T01:29:02.000Z,5.895503421309892
2023-04-03T01:30:05.000Z,5.934408602150556
2023-04-03T01:31:07.000Z,5.817693059628562
2023-04-03T01:32:10.000Z,5.856598240469227
2023-04-03T01:33:13.000Z,5.885777126099725
2023-04-03T01:34:15.000Z,5.895503421309892
2023-04-03T01:35:18.000Z,5.876050830889559
2023-04-03T01:36:21.000Z,5.866324535679393
2023-04-03T01:37:23.000Z,5.876050830889559
2023-04-03T01:38:26.000Z,5.866324535679393
2023-04-03T01:39:29.000Z,5.866324535679393
2023-04-03T01:40:31.000Z,5.866324535679393
2023-04-03T01:41:34.000Z,5.866324535679393
2023-04-03T01:42:37.000Z,5.856598240469227
2023-04-03T01:43:40.000Z,5.827419354838728
2023-04-03T01:44:42.000Z,5.8468719452590605
2023-04-03T01:45:45.000Z,5.885777126099725
2023-04-03T01:46:47.000Z,5.8468719452590605
2023-04-03T01:47:50.000Z,5.905229716520058
2023-04-03T01:48:53.000Z,5.885777126099725
2023-04-03T01:49:56.000Z,5.905229716520058
2023-04-03T01:50:58.000Z,5.905229716520058
2023-04-03T01:52:01.000Z,5.895503421309892
2023-04-03T01:53:03.000Z,5.837145650048894
2023-04-03T01:54:06.000Z,5.914956011730224
2023-04-03T01:55:09.000Z,5.914956011730224
2023-04-03T01:56:11.000Z,5.934408602150556
2023-04-03T01:57:14.000Z,5.827419354838728
2023-04-03T01:58:16.000Z,5.778787878787897
2023-04-03T01:59:20.000Z,5.885777126099725
2023-04-03T02:00:23.000Z,5.876050830889559
2023-04-03T02:01:26.000Z,5.856598240469227
2023-04-03T02:02:29.000Z,5.856598240469227
2023-04-03T02:03:31.000Z,5.856598240469227
2023-04-03T02:04:34.000Z,5.8468719452590605
2023-04-03T02:05:37.000Z,5.856598240469227
2023-04-03T02:06:44.000Z,5.876050830889559
2023-04-03T02:07:47.000Z,5.885777126099725
2023-04-03T02:08:49.000Z,5.885777126099725
2023-04-03T02:09:52.000Z,5.885777126099725
2023-04-03T02:10:55.000Z,5.885777126099725
2023-04-03T02:11:58.000Z,5.885777126099725
2023-04-03T02:13:00.000Z,5.885777126099725
2023-04-03T02:14:03.000Z,5.856598240469227
2023-04-03T02:15:05.000Z,5.866324535679393
2023-04-03T02:16:08.000Z,5.876050830889559
2023-04-03T02:17:11.000Z,5.905229716520058
2023-04-03T02:18:14.000Z,5.914956011730224
2023-04-03T02:19:16.000Z,5.885777126099725
2023-04-03T02:20:19.000Z,5.876050830889559
2023-04-03T02:21:22.000Z,5.866324535679393
2023-04-03T02:22:24.000Z,5.895503421309892
2023-04-03T02:23:27.000Z,5.856598240469227
2023-04-03T02:24:29.000Z,5.827419354838728
2023-04-03T02:25:32.000Z,5.807966764418396
2023-04-03T02:26:35.000Z,5.8468719452590605
2023-04-03T02:27:37.000Z,5.856598240469227
2023-04-03T02:28:40.000Z,5.856598240469227
2023-04-03T02:29:43.000Z,5.8468719452590605
2023-04-03T02:30:45.000Z,5.8468719452590605
2023-04-03T02:31:48.000Z,5.866324535679393
2023-04-03T02:32:51.000Z,5.837145650048894
2023-04-03T02:33:53.000Z,5.885777126099725
2023-04-03T02:34:56.000Z,5.885777126099725
2023-04-03T02:35:58.000Z,5.837145650048894
2023-04-03T02:37:01.000Z,5.8468719452590605
2023-04-03T02:38:04.000Z,5.827419354838728
2023-04-03T02:39:06.000Z,5.8468719452590605
2023-04-03T02:40:09.000Z,5.885777126099725
2023-04-03T02:41:11.000Z,5.905229716520058
2023-04-03T02:42:14.000Z,5.905229716520058
2023-04-03T02:43:17.000Z,5.866324535679393
2023-04-03T02:44:19.000Z,5.856598240469227
2023-04-03T02:45:22.000Z,5.866324535679393
2023-04-03T02:46:25.000Z,5.837145650048894
2023-04-03T02:47:27.000Z,5.817693059628562
2023-04-03T02:48:30.000Z,5.8468719452590605
2023-04-03T02:49:32.000Z,5.856598240469227
2023-04-03T02:50:35.000Z,5.856598240469227
2023-04-03T02:51:38.000Z,5.8468719452590605
2023-04-03T02:52:40.000Z,5.8468719452590605
2023-04-03T02:53:43.000Z,5.856598240469227
2023-04-03T02:54:46.000Z,5.778787878787897
2023-04-03T02:55:48.000Z,5.876050830889559
2023-04-03T02:56:51.000Z,5.876050830889559
2023-04-03T02:57:53.000Z,5.827419354838728
2023-04-03T02:58:56.000Z,5.856598240469227
2023-04-03T02:59:59.000Z,5.885777126099725
2023-04-03T03:01:01.000Z,5.885777126099725
2023-04-03T03:02:04.000Z,5.876050830889559
2023-04-03T03:03:07.000Z,5.934408602150556
2023-04-03T03:04:09.000Z,5.885777126099725
2023-04-03T03:05:12.000Z,5.895503421309892
2023-04-03T03:06:14.000Z,5.827419354838728
2023-04-03T03:07:17.000Z,5.92468230694039
2023-04-03T03:08:20.000Z,5.866324535679393
2023-04-03T03:09:22.000Z,5.876050830889559
2023-04-03T03:10:25.000Z,5.866324535679393
2023-04-03T03:11:27.000Z,5.807966764418396
2023-04-03T03:12:30.000Z,5.866324535679393
2023-04-03T03:13:33.000Z,5.807966764418396
2023-04-03T03:14:36.000Z,5.798240469208229
2023-04-03T03:15:38.000Z,5.837145650048894
2023-04-03T03:16:41.000Z,5.837145650048894
2023-04-03T03:17:44.000Z,5.866324535679393
2023-04-03T03:18:46.000Z,5.837145650048894
2023-04-03T03:19:49.000Z,5.905229716520058
2023-04-03T03:20:52.000Z,5.856598240469227
2023-04-03T03:21:54.000Z,5.827419354838728
2023-04-03T03:22:57.000Z,5.817693059628562
2023-04-03T03:24:00.000Z,5.885777126099725
2023-04-03T03:25:02.000Z,5.885777126099725
2023-04-03T03:26:05.000Z,5.905229716520058
2023-04-03T03:27:08.000Z,5.895503421309892
2023-04-03T03:28:11.000Z,5.866324535679393
2023-04-03T03:29:15.000Z,5.856598240469227
2023-04-03T03:30:18.000Z,5.895503421309892
2023-04-03T03:31:21.000Z,5.856598240469227
2023-04-03T03:32:23.000Z,5.856598240469227
2023-04-03T03:33:26.000Z,5.817693059628562
2023-04-03T03:34:29.000Z,5.876050830889559
2023-04-03T03:35:31.000Z,5.856598240469227
2023-04-03T03:36:34.000Z,5.827419354838728
2023-04-03T03:37:38.000Z,5.856598240469227
2023-04-03T03:38:41.000Z,5.798240469208229
2023-04-03T03:39:43.000Z,5.827419354838728
2023-04-03T03:40:46.000Z,5.8468719452590605
2023-04-03T03:41:49.000Z,5.798240469208229
2023-04-03T03:42:51.000Z,5.866324535679393
2023-04-03T03:43:54.000Z,5.856598240469227
2023-04-03T03:44:57.000Z,5.837145650048894
2023-04-03T03:46:00.000Z,5.856598240469227
2023-04-03T03:47:03.000Z,5.876050830889559
2023-04-03T03:48:05.000Z,5.92468230694039
2023-04-03T03:49:08.000Z,5.876050830889559
2023-04-03T03:50:11.000Z,5.876050830889559
2023-04-03T03:51:14.000Z,5.895503421309892
2023-04-03T03:52:17.000Z,5.895503421309892
2023-04-03T03:53:20.000Z,5.856598240469227
2023-04-03T03:54:22.000Z,5.817693059628562
2023-04-03T03:55:25.000Z,5.866324535679393
2023-04-03T03:56:28.000Z,5.856598240469227
2023-04-03T03:57:30.000Z,5.807966764418396
2023-04-03T03:58:33.000Z,5.827419354838728
2023-04-03T03:59:36.000Z,5.778787878787897
2023-04-03T04:00:39.000Z,5.837145650048894
2023-04-03T04:01:42.000Z,5.807966764418396
2023-04-03T04:02:44.000Z,5.827419354838728
2023-04-03T04:03:47.000Z,5.837145650048894
2023-04-03T04:04:49.000Z,5.817693059628562
2023-04-03T04:05:52.000Z,5.827419354838728
2023-04-03T04:06:55.000Z,5.856598240469227
2023-04-03T04:07:57.000Z,5.856598240469227
2023-04-03T04:09:00.000Z,5.876050830889559
2023-04-03T04:10:02.000Z,5.8468719452590605
2023-04-03T04:11:05.000Z,5.856598240469227
2023-04-03T04:12:08.000Z,5.876050830889559
2023-04-03T04:13:11.000Z,5.876050830889559
2023-04-03T04:14:14.000Z,5.876050830889559
2023-04-03T04:15:16.000Z,5.885777126099725
2023-04-03T04:16:19.000Z,5.837145650048894
2023-04-03T04:17:21.000Z,5.856598240469227
2023-04-03T04:18:24.000Z,5.8468719452590605
2023-04-03T04:19:27.000Z,5.837145650048894
2023-04-03T04:20:29.000Z,5.817693059628562
2023-04-03T04:21:32.000Z,5.807966764418396
2023-04-03T04:22:35.000Z,5.798240469208229
2023-04-03T04:23:38.000Z,5.866324535679393
2023-04-03T04:24:40.000Z,5.837145650048894
2023-04-03T04:25:43.000Z,5.827419354838728
2023-04-03T04:26:46.000Z,5.827419354838728
2023-04-03T04:27:48.000Z,5.827419354838728
2023-04-03T04:28:51.000Z,5.769061583577731
2023-04-03T04:29:53.000Z,5.856598240469227
2023-04-03T04:30:56.000Z,5.866324535679393
2023-04-03T04:31:58.000Z,5.866324535679393
2023-04-03T04:33:01.000Z,5.788514173998063
2023-04-03T04:34:04.000Z,5.837145650048894
2023-04-03T04:35:06.000Z,5.876050830889559
2023-04-03T04:36:09.000Z,5.866324535679393
2023-04-03T04:37:13.000Z,5.876050830889559
2023-04-03T04:38:15.000Z,5.885777126099725
2023-04-03T04:39:18.000Z,5.895503421309892
2023-04-03T04:40:20.000Z,5.905229716520058
2023-04-03T04:41:23.000Z,5.827419354838728
2023-04-03T04:42:26.000Z,5.866324535679393
2023-04-03T04:43:28.000Z,5.866324535679393
2023-04-03T04:44:31.000Z,5.817693059628562
2023-04-03T04:45:38.000Z,5.866324535679393
2023-04-03T04:46:41.000Z,5.885777126099725
2023-04-03T04:47:44.000Z,5.866324535679393
2023-04-03T04:48:46.000Z,5.856598240469227
2023-04-03T04:49:49.000Z,5.827419354838728
2023-04-03T04:50:52.000Z,5.827419354838728
2023-04-03T04:51:54.000Z,5.885777126099725
2023-04-03T04:52:57.000Z,5.895503421309892
2023-04-03T04:54:00.000Z,5.885777126099725
2023-04-03T04:55:02.000Z,5.885777126099725
2023-04-03T04:56:05.000Z,5.827419354838728
2023-04-03T04:57:07.000Z,5.895503421309892
2023-04-03T04:58:09.000Z,5.905229716520058
2023-04-03T04:59:12.000Z,5.905229716520058
2023-04-03T05:00:15.000Z,5.885777126099725
2023-04-03T05:01:17.000Z,5.914956011730224
2023-04-03T05:02:20.000Z,5.914956011730224
2023-04-03T05:03:22.000Z,5.914956011730224
2023-04-03T05:04:25.000Z,5.885777126099725
2023-04-03T05:05:27.000Z,5.866324535679393
2023-04-03T05:06:30.000Z,5.807966764418396
2023-04-03T05:07:33.000Z,5.876050830889559
2023-04-03T05:08:35.000Z,5.885777126099725
2023-04-03T05:09:38.000Z,5.914956011730224
2023-04-03T05:10:41.000Z,5.876050830889559
2023-04-03T05:11:43.000Z,5.866324535679393
2023-04-03T05:12:46.000Z,5.837145650048894
2023-04-03T05:13:48.000Z,5.856598240469227
2023-04-03T05:14:51.000Z,5.856598240469227
2023-04-03T05:15:54.000Z,5.866324535679393
2023-04-03T05:16:56.000Z,5.895503421309892
2023-04-03T05:17:59.000Z,5.92468230694039
2023-04-03T05:19:02.000Z,5.856598240469227
2023-04-03T05:20:04.000Z,5.905229716520058
2023-04-03T05:21:07.000Z,5.92468230694039
2023-04-03T05:22:09.000Z,5.92468230694039
2023-04-03T05:23:12.000Z,5.876050830889559
2023-04-03T05:24:14.000Z,5.895503421309892
2023-04-03T05:25:17.000Z,5.934408602150556
2023-04-03T05:26:19.000Z,5.944134897360723
2023-04-03T05:27:22.000Z,5.953861192570889
2023-04-03T05:28:25.000Z,5.885777126099725
2023-04-03T05:29:27.000Z,5.895503421309892
2023-04-03T05:30:30.000Z,5.866324535679393
2023-04-03T05:31:33.000Z,5.895503421309892
2023-04-03T05:32:35.000Z,5.885777126099725
2023-04-03T05:33:38.000Z,5.807966764418396
2023-04-03T05:34:41.000Z,5.885777126099725
2023-04-03T05:35:43.000Z,5.885777126099725
2023-04-03T05:36:46.000Z,5.885777126099725
2023-04-03T05:37:48.000Z,5.876050830889559
2023-04-03T05:38:51.000Z,5.876050830889559
2023-04-03T05:39:53.000Z,5.837145650048894
2023-04-03T05:40:56.000Z,5.866324535679393
2023-04-03T05:41:59.000Z,5.905229716520058
2023-04-03T05:43:02.000Z,5.914956011730224
2023-04-03T05:44:04.000Z,5.914956011730224
2023-04-03T05:45:07.000Z,5.914956011730224
2023-04-03T05:46:09.000Z,5.914956011730224
2023-04-03T05:47:12.000Z,5.914956011730224
2023-04-03T05:48:15.000Z,5.885777126099725
2023-04-03T05:49:17.000Z,5.876050830889559
2023-04-03T05:50:20.000Z,5.866324535679393
2023-04-03T05:51:24.000Z,5.92468230694039
2023-04-03T05:52:26.000Z,5.895503421309892
2023-04-03T05:53:29.000Z,5.914956011730224
2023-04-03T05:54:32.000Z,5.856598240469227
2023-04-03T05:55:34.000Z,5.8468719452590605
2023-04-03T05:56:37.000Z,5.885777126099725
2023-04-03T05:57:40.000Z,5.876050830889559
2023-04-03T05:58:42.000Z,5.866324535679393
2023-04-03T05:59:45.000Z,5.866324535679393
2023-04-03T06:00:48.000Z,5.876050830889559
2023-04-03T06:01:50.000Z,5.876050830889559
2023-04-03T06:02:53.000Z,5.876050830889559
2023-04-03T06:03:55.000Z,5.8468719452590605
2023-04-03T06:04:58.000Z,5.895503421309892
2023-04-03T06:06:01.000Z,5.905229716520058
2023-04-03T06:07:03.000Z,5.905229716520058
2023-04-03T06:08:06.000Z,5.914956011730224
2023-04-03T06:09:09.000Z,5.92468230694039
2023-04-03T06:10:11.000Z,5.934408602150556
2023-04-03T06:11:19.000Z,5.973313782991221
2023-04-03T06:12:21.000Z,5.944134897360723
2023-04-03T06:13:24.000Z,5.92468230694039
2023-04-03T06:14:26.000Z,5.914956011730224
2023-04-03T06:15:29.000Z,5.876050830889559
2023-04-03T06:16:32.000Z,5.914956011730224
2023-04-03T06:17:34.000Z,5.905229716520058
2023-04-03T06:18:37.000Z,5.905229716520058
2023-04-03T06:19:40.000Z,5.895503421309892
2023-04-03T06:20:42.000Z,5.885777126099725
2023-04-03T06:21:45.000Z,5.866324535679393
2023-04-03T06:22:48.000Z,5.885777126099725
2023-04-03T06:23:50.000Z,5.885777126099725
2023-04-03T06:24:58.000Z,5.817693059628562
2023-04-03T06:26:00.000Z,5.914956011730224
2023-04-03T06:27:03.000Z,5.914956011730224
2023-04-03T06:28:06.000Z,5.944134897360723
2023-04-03T06:29:09.000Z,5.914956011730224
2023-04-03T06:30:11.000Z,5.914956011730224
2023-04-03T06:31:14.000Z,5.92468230694039
2023-04-03T06:32:17.000Z,5.934408602150556
2023-04-03T06:33:19.000Z,5.905229716520058
2023-04-03T06:34:22.000Z,5.934408602150556
2023-04-03T06:35:25.000Z,5.944134897360723
2023-04-03T06:36:27.000Z,5.963587487781055
2023-04-03T06:37:30.000Z,5.944134897360723
2023-04-03T06:38:33.000Z,5.92468230694039
2023-04-03T06:39:36.000Z,5.914956011730224
2023-04-03T06:40:39.000Z,5.905229716520058
2023-04-03T06:41:41.000Z,5.856598240469227
2023-04-03T06:42:44.000Z,5.914956011730224
2023-04-03T06:43:46.000Z,5.856598240469227
2023-04-03T06:44:49.000Z,5.866324535679393
2023-04-03T06:45:52.000Z,5.856598240469227
2023-04-03T06:46:55.000Z,5.837145650048894
2023-04-03T06:47:58.000Z,5.8468719452590605
2023-04-03T06:49:00.000Z,5.905229716520058
2023-04-03T06:50:03.000Z,5.914956011730224
2023-04-03T06:51:06.000Z,5.92468230694039
2023-04-03T06:52:13.000Z,5.895503421309892
2023-04-03T06:53:16.000Z,5.8468719452590605
2023-04-03T06:54:19.000Z,5.944134897360723
2023-04-03T06:55:21.000Z,5.944134897360723
2023-04-03T06:56:24.000Z,5.953861192570889
2023-04-03T06:57:27.000Z,5.953861192570889
2023-04-03T06:58:30.000Z,5.944134897360723
2023-04-03T06:59:32.000Z,5.905229716520058
2023-04-03T07:00:35.000Z,5.905229716520058
2023-04-03T07:01:38.000Z,5.905229716520058
2023-04-03T07:02:40.000Z,5.905229716520058
2023-04-03T07:03:43.000Z,5.895503421309892
2023-04-03T07:04:46.000Z,5.92468230694039
2023-04-03T07:05:48.000Z,5.856598240469227
2023-04-03T07:06:51.000Z,5.866324535679393
2023-04-03T07:07:54.000Z,5.92468230694039
2023-04-03T07:08:56.000Z,5.895503421309892
2023-04-03T07:09:59.000Z,5.876050830889559
2023-04-03T07:11:01.000Z,5.944134897360723
2023-04-03T07:12:04.000Z,5.92468230694039
2023-04-03T07:13:07.000Z,5.92468230694039
2023-04-03T07:14:11.000Z,5.92468230694039
2023-04-03T07:15:13.000Z,5.92468230694039
2023-04-03T07:16:16.000Z,5.944134897360723
2023-04-03T07:17:19.000Z,5.944134897360723
2023-04-03T07:18:21.000Z,5.944134897360723
2023-04-03T07:19:24.000Z,5.953861192570889
2023-04-03T07:20:27.000Z,5.953861192570889
2023-04-03T07:21:29.000Z,5.866324535679393
2023-04-03T07:22:32.000Z,5.895503421309892
2023-04-03T07:23:34.000Z,5.934408602150556
2023-04-03T07:24:37.000Z,5.905229716520058
2023-04-03T07:25:40.000Z,5.914956011730224
2023-04-03T07:26:42.000Z,5.92468230694039
2023-04-03T07:27:45.000Z,5.92468230694039
2023-04-03T07:28:48.000Z,5.914956011730224
2023-04-03T07:29:51.000Z,5.905229716520058
2023-04-03T07:30:53.000Z,5.866324535679393
2023-04-03T07:31:56.000Z,5.905229716520058
2023-04-03T07:32:59.000Z,5.885777126099725
2023-04-03T07:34:01.000Z,5.953861192570889
2023-04-03T07:35:04.000Z,5.953861192570889
2023-04-03T07:36:07.000Z,5.963587487781055
2023-04-03T07:37:10.000Z,5.944134897360723
2023-04-03T07:38:12.000Z,5.944134897360723
2023-04-03T07:39:15.000Z,5.973313782991221
2023-04-03T07:40:18.000Z,5.973313782991221
2023-04-03T07:41:20.000Z,5.953861192570889
2023-04-03T07:42:23.000Z,5.934408602150556
2023-04-03T07:43:25.000Z,5.953861192570889
2023-04-03T07:44:28.000Z,6.021945259042052
2023-04-03T07:45:31.000Z,6.031671554252219
2023-04-03T07:46:34.000Z,5.9830400782013875
2023-04-03T07:47:36.000Z,5.973313782991221
2023-04-03T07:48:39.000Z,5.905229716520058
2023-04-03T07:49:41.000Z,5.953861192570889
2023-04-03T07:50:44.000Z,5.953861192570889
2023-04-03T07:51:47.000Z,5.934408602150556
2023-04-03T07:52:49.000Z,5.92468230694039
2023-04-03T07:53:52.000Z,5.92468230694039
2023-04-03T07:55:00.000Z,5.895503421309892
2023-04-03T07:56:02.000Z,5.963587487781055
2023-04-03T07:57:05.000Z,5.963587487781055
2023-04-03T07:58:08.000Z,5.953861192570889
2023-04-03T07:59:10.000Z,5.963587487781055
2023-04-03T08:00:13.000Z,5.973313782991221
2023-04-03T08:01:16.000Z,5.953861192570889
2023-04-03T08:02:18.000Z,5.934408602150556
2023-04-03T08:03:21.000Z,5.963587487781055
2023-04-03T08:04:24.000Z,5.973313782991221
2023-04-03T08:05:26.000Z,5.92468230694039
2023-04-03T08:06:29.000Z,5.973313782991221
2023-04-03T08:07:31.000Z,5.992766373411554
2023-04-03T08:08:34.000Z,5.953861192570889
2023-04-03T08:09:37.000Z,5.944134897360723
2023-04-03T08:10:39.000Z,5.973313782991221
2023-04-03T08:11:42.000Z,5.9830400782013875
2023-04-03T08:12:45.000Z,5.953861192570889
2023-04-03T08:13:47.000Z,5.944134897360723
2023-04-03T08:14:50.000Z,5.944134897360723
2023-04-03T08:15:53.000Z,5.934408602150556
2023-04-03T08:16:56.000Z,5.953861192570889
2023-04-03T08:17:59.000Z,5.914956011730224
2023-04-03T08:19:01.000Z,5.934408602150556
2023-04-03T08:20:04.000Z,5.963587487781055
2023-04-03T08:21:06.000Z,5.973313782991221
2023-04-03T08:22:09.000Z,5.9830400782013875
2023-04-03T08:23:12.000Z,5.973313782991221
2023-04-03T08:24:15.000Z,5.953861192570889
2023-04-03T08:25:17.000Z,5.953861192570889
2023-04-03T08:26:20.000Z,5.973313782991221
2023-04-03T08:27:22.000Z,5.992766373411554
2023-04-03T08:28:25.000Z,5.934408602150556
2023-04-03T08:29:28.000Z,6.00249266862172
2023-04-03T08:30:30.000Z,6.031671554252219
2023-04-03T08:31:33.000Z,5.9830400782013875
2023-04-03T08:32:36.000Z,5.953861192570889
2023-04-03T08:33:38.000Z,5.885777126099725
2023-04-03T08:34:41.000Z,5.973313782991221
2023-04-03T08:35:44.000Z,5.953861192570889
2023-04-03T08:36:47.000Z,5.953861192570889
2023-04-03T08:37:50.000Z,5.934408602150556
2023-04-03T08:38:53.000Z,5.92468230694039
2023-04-03T08:39:55.000Z,5.905229716520058
2023-04-03T08:40:58.000Z,5.934408602150556
2023-04-03T08:42:01.000Z,5.895503421309892
2023-04-03T08:43:04.000Z,5.92468230694039
2023-04-03T08:44:06.000Z,5.973313782991221
2023-04-03T08:45:09.000Z,5.973313782991221
2023-04-03T08:46:12.000Z,5.944134897360723
2023-04-03T08:47:15.000Z,5.9830400782013875
2023-04-03T08:48:18.000Z,6.031671554252219
2023-04-03T08:49:20.000Z,5.992766373411554
2023-04-03T08:50:23.000Z,6.012218963831886
2023-04-03T08:51:25.000Z,6.012218963831886
2023-04-03T08:52:28.000Z,6.00249266862172
2023-04-03T08:53:31.000Z,6.031671554252219
2023-04-03T08:54:34.000Z,6.070576735092883
2023-04-03T08:55:36.000Z,5.953861192570889
2023-04-03T08:56:39.000Z,6.021945259042052
2023-04-03T08:57:41.000Z,6.041397849462385
2023-04-03T08:58:44.000Z,6.012218963831886
2023-04-03T08:59:47.000Z,6.051124144672551
2023-04-03T09:00:49.000Z,6.041397849462385
2023-04-03T09:01:52.000Z,6.051124144672551
2023-04-03T09:02:55.000Z,5.992766373411554
2023-04-03T09:03:58.000Z,5.992766373411554
2023-04-03T09:05:00.000Z,6.031671554252219
2023-04-03T09:06:03.000Z,6.00249266862172
2023-04-03T09:07:06.000Z,5.992766373411554
2023-04-03T09:08:09.000Z,6.031671554252219
2023-04-03T09:09:12.000Z,6.021945259042052
2023-04-03T09:10:14.000Z,6.021945259042052
2023-04-03T09:11:17.000Z,6.021945259042052
2023-04-03T09:12:20.000Z,6.031671554252219
2023-04-03T09:13:22.000Z,6.031671554252219
2023-04-03T09:14:25.000Z,6.021945259042052
2023-04-03T09:15:28.000Z,6.012218963831886
2023-04-03T09:16:31.000Z,6.031671554252219
2023-04-03T09:17:33.000Z,5.973313782991221
2023-04-03T09:18:36.000Z,6.041397849462385
2023-04-03T09:19:39.000Z,5.973313782991221
2023-04-03T09:20:41.000Z,6.00249266862172
2023-04-03T09:21:44.000Z,6.00249266862172
2023-04-03T09:22:46.000Z,6.051124144672551
2023-04-03T09:23:49.000Z,6.00249266862172
2023-04-03T09:24:52.000Z,6.00249266862172
2023-04-03T09:25:55.000Z,6.00249266862172
2023-04-03T09:26:57.000Z,6.012218963831886
2023-04-03T09:28:00.000Z,5.992766373411554
2023-04-03T09:29:02.000Z,6.012218963831886
2023-04-03T09:30:05.000Z,6.021945259042052
2023-04-03T09:31:08.000Z,6.00249266862172
2023-04-03T09:32:10.000Z,6.031671554252219
2023-04-03T09:33:13.000Z,6.041397849462385
2023-04-03T09:34:16.000Z,6.021945259042052
2023-04-03T09:35:19.000Z,6.031671554252219
2023-04-03T09:36:21.000Z,6.021945259042052
2023-04-03T09:37:24.000Z,6.021945259042052
2023-04-03T09:38:26.000Z,5.953861192570889
2023-04-03T09:39:29.000Z,6.060850439882717
2023-04-03T09:40:32.000Z,6.051124144672551
2023-04-03T09:41:34.000Z,6.051124144672551
2023-04-03T09:42:37.000Z,6.00249266862172